Terminal Aerodrome Forecast
Issued by NWS

Home | Current Version | Previous Version | Text Only | Print | Product List | Glossary On
Versions: 1 2 3 4 5 6 7 8 9 10 11 12 13 14
000
FTUS43 KEAX 031700
TAFMKC
TAF
KMKC 031720Z 0318/0418 20016G24KT P6SM SCT100
     FM040200 20012KT P6SM SCT150
     FM040800 21009KT 5SM -TSRA BKN050CB
     FM041200 21009KT P6SM VCTS SCT050CB=

USA.gov is the U.S. government's official web portal to all federal, state and local government web resources and services.